Time;durP1;ratioP1;P1;durP2;ratioP2;P2;SDS_P1;SDS_P2;PMS_P1;PMS_P2;Temp;Humidity;BMP_temperature;BMP_pressure;BME280_temperature;BME280_humidity;BME280_pressure;Samples;Min_cycle;Max_cycle;Signal;HPM_P1;HPM_P2
2022/04/22 00:01:10;;;;;;;9.25;5.47;;;9.90;99.90;;;;;;5109466;28;20058;-68
2022/04/22 00:03:35;;;;;;;10.68;5.15;;;9.90;99.90;;;;;;5111424;28;20043;-69
2022/04/22 00:06:01;;;;;;;9.50;5.15;;;9.90;99.90;;;;;;5110325;28;20047;-69
2022/04/22 00:08:27;;;;;;;9.45;4.68;;;9.80;99.90;;;;;;5111269;28;20092;-69
2022/04/22 00:13:36;;;;;;;11.25;4.93;;;9.70;99.90;;;;;;5110645;28;20043;-69
2022/04/22 00:16:03;;;;;;;8.52;5.97;;;9.70;99.90;;;;;;5109471;28;20126;-69
2022/04/22 00:18:30;;;;;;;6.88;5.00;;;9.60;99.90;;;;;;5111244;28;20064;-68
2022/04/22 00:20:56;;;;;;;9.38;5.18;;;9.60;99.90;;;;;;5107639;28;20047;-69
2022/04/22 00:23:22;;;;;;;6.00;4.95;;;9.50;99.90;;;;;;5109804;28;20036;-69
2022/04/22 00:25:47;;;;;;;12.68;5.50;;;9.50;99.90;;;;;;5110856;28;20047;-69
2022/04/22 00:28:13;;;;;;;7.25;4.85;;;9.50;99.90;;;;;;5109072;28;20072;-69
2022/04/22 00:30:38;;;;;;;11.13;5.45;;;9.50;99.90;;;;;;5111078;28;20087;-69
2022/04/22 00:33:05;;;;;;;15.10;5.90;;;9.40;99.90;;;;;;5110932;28;20051;-69
2022/04/22 00:35:31;;;;;;;7.63;4.82;;;9.40;99.90;;;;;;5110396;28;20046;-69
2022/04/22 00:37:57;;;;;;;7.45;4.63;;;9.30;99.90;;;;;;5109489;28;20455;-69
2022/04/22 00:40:23;;;;;;;9.55;5.43;;;9.40;99.90;;;;;;5110412;28;20036;-69
2022/04/22 00:42:48;;;;;;;8.57;5.25;;;9.30;99.90;;;;;;5110200;28;20130;-69
2022/04/22 00:45:16;;;;;;;10.98;5.85;;;9.30;99.90;;;;;;5110421;28;20793;-69
2022/04/22 00:47:41;;;;;;;9.07;5.03;;;9.30;99.90;;;;;;5109775;28;20059;-69
2022/04/22 00:50:07;;;;;;;10.45;5.93;;;9.30;99.90;;;;;;5109573;28;20062;-69
2022/04/22 00:52:33;;;;;;;12.02;5.93;;;9.30;99.90;;;;;;5110896;28;20044;-69
2022/04/22 00:54:58;;;;;;;8.73;5.68;;;9.30;99.90;;;;;;5109732;28;20035;-69
2022/04/22 00:57:24;;;;;;;10.43;5.55;;;9.30;99.90;;;;;;5110893;28;20129;-69
2022/04/22 00:59:51;;;;;;;8.95;5.55;;;9.30;99.90;;;;;;5114687;28;20106;-69
2022/04/22 01:02:16;;;;;;;10.10;6.50;;;9.40;99.90;;;;;;5112651;28;20050;-68
2022/04/22 01:10:11;;;;;;;8.80;5.13;;;9.40;99.90;;;;;;5098194;28;20052;-68
2022/04/22 01:12:37;;;;;;;8.88;5.63;;;9.40;99.90;;;;;;5109120;28;20410;-68
2022/04/22 01:15:03;;;;;;;9.80;5.88;;;9.40;99.90;;;;;;5112651;28;20054;-69
2022/04/22 01:17:29;;;;;;;10.60;6.22;;;9.30;99.90;;;;;;5111589;28;20521;-69
2022/04/22 01:19:55;;;;;;;9.55;5.80;;;9.30;99.90;;;;;;5113678;28;20500;-69
2022/04/22 01:22:22;;;;;;;8.98;5.47;;;9.30;99.90;;;;;;5105308;28;20055;-69
2022/04/22 01:24:51;;;;;;;10.65;5.68;;;9.30;99.90;;;;;;5093074;28;20037;-69
2022/04/22 01:27:17;;;;;;;10.80;5.97;;;9.30;99.90;;;;;;5094371;28;20044;-69
2022/04/22 01:29:43;;;;;;;7.65;5.53;;;9.20;99.90;;;;;;5112661;28;20176;-68
2022/04/22 01:32:09;;;;;;;12.40;5.72;;;9.20;99.90;;;;;;5112884;28;20134;-68
2022/04/22 01:34:34;;;;;;;10.38;6.13;;;9.20;99.90;;;;;;5113850;28;20446;-68
2022/04/22 01:37:00;;;;;;;9.65;4.85;;;9.10;99.90;;;;;;5111470;28;20051;-69
2022/04/22 01:39:29;;;;;;;8.23;5.57;;;9.10;99.90;;;;;;5112456;28;20104;-68
2022/04/22 01:41:55;;;;;;;11.35;6.10;;;9.10;99.90;;;;;;5112143;28;20040;-69
2022/04/22 01:44:20;;;;;;;8.82;5.30;;;9.10;99.90;;;;;;5111628;28;20150;-68
2022/04/22 01:46:46;;;;;;;7.13;5.80;;;9.00;99.90;;;;;;5112561;28;20135;-69
2022/04/22 01:49:11;;;;;;;9.60;5.95;;;9.00;99.90;;;;;;5113293;28;20486;-69
2022/04/22 01:51:38;;;;;;;12.13;6.55;;;9.00;99.90;;;;;;5111362;28;20063;-68
2022/04/22 01:54:03;;;;;;;11.98;6.00;;;8.90;99.90;;;;;;5112874;28;20051;-69
2022/04/22 01:56:29;;;;;;;9.13;6.28;;;8.80;99.90;;;;;;5113422;28;20048;-68
2022/04/22 01:58:54;;;;;;;10.93;5.47;;;8.80;99.90;;;;;;5112466;28;20036;-68
2022/04/22 02:01:20;;;;;;;10.25;5.60;;;8.70;99.90;;;;;;5096049;28;20048;-69
2022/04/22 02:03:45;;;;;;;10.00;5.40;;;8.70;99.90;;;;;;5092773;28;20040;-69
2022/04/22 02:06:11;;;;;;;17.27;6.07;;;8.70;99.90;;;;;;5108331;28;20135;-69
2022/04/22 02:08:37;;;;;;;9.63;5.97;;;8.60;99.90;;;;;;5112168;28;20067;-69
2022/04/22 02:11:03;;;;;;;8.23;5.65;;;8.60;99.90;;;;;;5111487;28;20051;-69
2022/04/22 02:13:28;;;;;;;7.72;5.25;;;8.50;99.90;;;;;;5111211;28;20062;-69
2022/04/22 02:15:54;;;;;;;9.02;5.95;;;8.50;99.90;;;;;;5111018;28;20434;-69
2022/04/22 02:18:19;;;;;;;10.13;5.63;;;8.50;99.90;;;;;;5112866;28;20370;-69
2022/04/22 02:20:45;;;;;;;8.73;5.38;;;8.40;99.90;;;;;;5112379;28;20444;-69
2022/04/22 02:23:11;;;;;;;8.73;5.20;;;8.40;99.90;;;;;;5111389;28;20494;-69
2022/04/22 02:25:36;;;;;;;12.90;5.65;;;8.40;99.90;;;;;;5111969;28;20130;-69
2022/04/22 02:30:46;;;;;;;11.48;6.32;;;8.30;99.90;;;;;;5111418;28;20107;-68
2022/04/22 02:33:13;;;;;;;9.30;5.38;;;8.20;99.90;;;;;;5112356;28;20078;-69
2022/04/22 02:35:39;;;;;;;7.93;5.82;;;8.20;99.90;;;;;;5110923;28;20675;-69
2022/04/22 02:38:04;;;;;;;8.40;5.25;;;8.20;99.90;;;;;;5111220;28;20130;-69
2022/04/22 02:45:58;;;;;;;5.28;4.75;;;8.10;99.90;;;;;;5112156;28;20048;-69
2022/04/22 02:48:24;;;;;;;7.57;5.45;;;8.10;99.90;;;;;;5110650;28;20048;-69
2022/04/22 02:50:49;;;;;;;9.77;5.95;;;8.10;99.90;;;;;;5112086;28;20059;-69
2022/04/22 02:53:15;;;;;;;12.43;5.40;;;8.10;99.90;;;;;;5110594;28;20058;-69
2022/04/22 02:55:48;;;;;;;12.80;5.35;;;8.00;99.90;;;;;;5111480;28;20074;-69
2022/04/22 02:58:14;;;;;;;8.88;5.65;;;8.00;99.90;;;;;;5111967;27;20062;-69
2022/04/22 03:00:39;;;;;;;8.80;5.07;;;8.00;99.90;;;;;;5112414;28;20047;-69
2022/04/22 03:03:05;;;;;;;9.45;5.28;;;8.00;99.90;;;;;;5111178;28;20040;-69
2022/04/22 03:05:30;;;;;;;7.88;4.82;;;8.00;99.90;;;;;;5110955;28;20047;-69
2022/04/22 03:07:56;;;;;;;7.50;4.53;;;8.00;99.90;;;;;;5110501;28;20047;-69
2022/04/22 03:10:21;;;;;;;7.82;6.00;;;7.90;99.90;;;;;;5111195;28;20515;-69
2022/04/22 03:12:47;;;;;;;9.30;4.93;;;7.80;99.90;;;;;;5110787;28;20159;-69
2022/04/22 03:15:16;;;;;;;9.98;5.45;;;7.80;99.90;;;;;;5111635;28;20667;-68
2022/04/22 03:17:41;;;;;;;12.02;5.38;;;7.80;99.90;;;;;;5110033;28;20100;-69
2022/04/22 03:20:08;;;;;;;9.63;5.38;;;7.80;99.90;;;;;;5110111;28;20056;-69
2022/04/22 03:22:33;;;;;;;7.97;5.45;;;7.80;99.90;;;;;;5110934;28;20119;-69
2022/04/22 03:25:00;;;;;;;9.88;5.78;;;7.80;99.90;;;;;;5110033;28;20056;-69
2022/04/22 03:27:25;;;;;;;8.65;4.90;;;7.70;99.90;;;;;;5110283;28;20490;-69
2022/04/22 03:29:51;;;;;;;11.52;4.95;;;7.70;99.90;;;;;;5109341;28;20047;-70
2022/04/22 03:32:16;;;;;;;10.05;4.57;;;7.70;99.90;;;;;;5110172;28;20055;-69
2022/04/22 03:34:42;;;;;;;8.10;4.88;;;7.70;99.90;;;;;;5111470;28;20039;-69
2022/04/22 03:37:07;;;;;;;7.20;5.30;;;7.70;99.90;;;;;;5110423;28;20051;-69
2022/04/22 03:39:33;;;;;;;11.52;4.57;;;7.70;99.90;;;;;;5110328;28;20080;-69
2022/04/22 03:41:59;;;;;;;7.90;4.70;;;7.70;99.90;;;;;;5110057;28;20130;-68
2022/04/22 03:44:25;;;;;;;7.15;4.63;;;7.70;99.90;;;;;;5109496;28;20134;-69
2022/04/22 03:46:54;;;;;;;7.05;4.60;;;7.60;99.90;;;;;;5111071;28;20519;-70
2022/04/22 03:49:19;;;;;;;7.53;5.03;;;7.70;99.90;;;;;;5111313;28;20706;-69
2022/04/22 03:51:45;;;;;;;9.75;4.75;;;7.60;99.90;;;;;;5109448;28;20059;-69
2022/04/22 03:54:11;;;;;;;7.30;4.30;;;7.60;99.90;;;;;;5110945;28;20051;-69
2022/04/22 03:59:20;;;;;;;9.50;5.28;;;7.60;99.90;;;;;;5110663;28;20086;-69
2022/04/22 04:01:45;;;;;;;9.70;5.10;;;7.60;99.90;;;;;;5111400;28;20132;-69
2022/04/22 04:04:11;;;;;;;6.85;4.50;;;7.50;99.90;;;;;;5101782;28;20044;-69
2022/04/22 04:06:37;;;;;;;6.55;4.93;;;7.50;99.90;;;;;;5092357;28;20048;-69
2022/04/22 04:17:15;;;;;;;8.13;4.80;;;7.50;99.90;;;;;;5110854;28;20058;-69
2022/04/22 04:25:09;;;;;;;7.95;4.97;;;7.40;99.90;;;;;;5110831;28;20056;-69
2022/04/22 04:27:36;;;;;;;7.85;3.97;;;7.30;99.90;;;;;;5110203;28;20043;-69
2022/04/22 04:30:06;;;;;;;9.85;5.20;;;7.30;99.90;;;;;;5109249;28;20075;-69
2022/04/22 04:32:32;;;;;;;8.65;4.70;;;7.40;99.90;;;;;;5110242;28;20050;-69
2022/04/22 04:34:57;;;;;;;7.72;4.72;;;7.30;99.90;;;;;;5108288;28;20052;-69
2022/04/22 04:37:23;;;;;;;6.90;4.43;;;7.30;99.90;;;;;;5115045;28;20040;-69
2022/04/22 04:39:49;;;;;;;6.82;4.97;;;7.40;99.90;;;;;;5104368;28;20493;-69
2022/04/22 04:42:14;;;;;;;5.50;3.92;;;7.30;99.90;;;;;;5093174;28;20052;-69
2022/04/22 04:44:40;;;;;;;5.50;3.42;;;7.30;99.90;;;;;;5108561;28;20447;-68
2022/04/22 04:47:06;;;;;;;5.53;3.33;;;7.30;99.90;;;;;;5096164;28;20435;-68
2022/04/22 04:49:31;;;;;;;8.60;4.30;;;7.30;99.90;;;;;;5114636;28;20032;-69
2022/04/22 04:51:57;;;;;;;4.80;3.65;;;7.30;99.90;;;;;;5109620;28;20376;-69
2022/04/22 04:54:23;;;;;;;7.82;3.80;;;7.30;99.90;;;;;;5098629;28;20040;-69
2022/04/22 04:56:50;;;;;;;6.05;3.55;;;7.30;99.90;;;;;;5110070;28;20046;-69
2022/04/22 04:59:16;;;;;;;3.75;3.25;;;7.30;99.90;;;;;;5093763;28;20478;-69
2022/04/22 05:01:42;;;;;;;6.10;3.78;;;7.50;99.90;;;;;;5108957;28;20054;-69
2022/04/22 05:04:07;;;;;;;4.82;3.70;;;7.40;99.90;;;;;;5113024;28;20043;-69
2022/04/22 05:06:33;;;;;;;5.90;3.65;;;7.30;99.90;;;;;;5113409;28;20097;-69
2022/04/22 05:08:59;;;;;;;3.13;2.75;;;7.30;99.90;;;;;;5108915;28;20135;-69
2022/04/22 05:11:24;;;;;;;7.82;3.75;;;7.40;99.90;;;;;;5093728;28;20044;-69
2022/04/22 05:13:50;;;;;;;4.43;3.30;;;7.40;99.90;;;;;;5093786;28;20079;-69
2022/04/22 05:16:15;;;;;;;7.80;3.67;;;7.40;99.90;;;;;;5091856;28;20052;-69
2022/04/22 05:18:41;;;;;;;4.22;3.40;;;7.40;99.90;;;;;;5093819;28;20036;-69
2022/04/22 05:21:07;;;;;;;8.80;3.72;;;7.40;99.90;;;;;;5102820;28;20107;-69
2022/04/22 05:23:33;;;;;;;7.10;3.70;;;7.40;99.90;;;;;;5105903;28;20119;-69
2022/04/22 05:26:01;;;;;;;4.95;3.17;;;7.50;99.90;;;;;;5092158;28;20058;-69
2022/04/22 05:28:28;;;;;;;4.97;2.78;;;7.50;99.90;;;;;;5092571;28;20048;-69
2022/04/22 05:33:37;;;;;;;4.78;3.05;;;7.50;99.90;;;;;;5093482;28;20040;-69
2022/04/22 05:36:04;;;;;;;5.55;3.47;;;7.50;99.90;;;;;;5093179;28;20482;-69
2022/04/22 05:38:30;;;;;;;6.00;2.95;;;7.50;99.90;;;;;;5092679;28;20048;-69
2022/04/22 05:40:55;;;;;;;6.50;3.30;;;7.60;99.90;;;;;;5093227;28;20055;-70
2022/04/22 05:43:21;;;;;;;9.82;3.33;;;7.60;99.90;;;;;;5094317;28;20048;-69
2022/04/22 05:45:46;;;;;;;3.03;2.60;;;7.70;99.90;;;;;;5107973;28;20050;-69
2022/04/22 05:48:12;;;;;;;5.80;3.30;;;7.70;99.90;;;;;;5113316;28;20084;-69
2022/04/22 05:50:38;;;;;;;5.00;3.50;;;7.70;99.90;;;;;;5097407;28;20102;-69
2022/04/22 05:53:04;;;;;;;5.47;2.85;;;7.80;99.90;;;;;;5092761;28;20036;-69
2022/04/22 05:55:29;;;;;;;5.75;2.97;;;7.90;99.90;;;;;;5093245;28;20040;-69
2022/04/22 05:57:56;;;;;;;4.43;3.00;;;8.00;99.90;;;;;;5094980;28;20044;-69
2022/04/22 06:00:24;;;;;;;3.63;2.75;;;8.00;99.90;;;;;;5101168;28;20047;-69
2022/04/22 06:02:52;;;;;;;3.80;2.83;;;8.10;99.90;;;;;;5091533;28;20055;-69
2022/04/22 06:05:20;;;;;;;3.92;2.33;;;8.20;99.90;;;;;;5093757;28;20035;-69
2022/04/22 06:07:46;;;;;;;3.25;2.10;;;8.30;99.90;;;;;;5110130;28;20039;-69
2022/04/22 06:10:31;;;;;;;4.03;2.55;;;8.30;99.90;;;;;;5108347;28;20387;-69
2022/04/22 06:12:58;;;;;;;2.92;2.15;;;8.40;99.90;;;;;;5091744;28;20089;-69
2022/04/22 06:15:23;;;;;;;2.90;2.45;;;8.50;99.90;;;;;;5092710;28;20044;-69
2022/04/22 06:17:50;;;;;;;6.10;2.85;;;8.50;99.90;;;;;;5092611;28;20138;-69
2022/04/22 06:20:15;;;;;;;3.33;2.45;;;8.60;99.90;;;;;;5091816;28;20044;-69
2022/04/22 06:22:41;;;;;;;2.55;2.30;;;8.60;99.90;;;;;;5091382;28;20101;-69
2022/04/22 06:25:10;;;;;;;5.57;2.60;;;8.70;99.90;;;;;;5092148;28;20439;-69
2022/04/22 06:27:39;;;;;;;4.72;2.80;;;8.70;99.90;;;;;;5090101;28;20098;-69
2022/04/22 06:30:07;;;;;;;5.18;2.47;;;8.80;99.90;;;;;;5090688;28;20044;-69
2022/04/22 06:32:33;;;;;;;3.53;2.28;;;8.90;99.90;;;;;;5090177;28;20048;-69
2022/04/22 06:34:59;;;;;;;2.70;2.13;;;9.00;99.90;;;;;;5101214;28;20047;-70
2022/04/22 06:37:25;;;;;;;3.60;2.13;;;9.00;99.90;;;;;;5107544;28;20058;-69
2022/04/22 06:48:05;;;;;;;4.07;2.33;;;9.30;99.90;;;;;;5102023;28;20079;-69
2022/04/22 06:50:31;;;;;;;2.05;1.85;;;9.40;99.90;;;;;;5094023;28;20090;-69
2022/04/22 06:52:57;;;;;;;3.47;2.35;;;9.50;99.90;;;;;;5111862;28;20043;-69
2022/04/22 06:55:24;;;;;;;2.83;1.88;;;9.50;99.90;;;;;;5110793;28;20036;-69
2022/04/22 06:57:50;;;;;;;3.42;2.00;;;9.60;99.90;;;;;;5109925;28;20051;-70
2022/04/22 07:00:19;;;;;;;7.20;2.65;;;9.70;99.90;;;;;;5098292;28;20054;-69
2022/04/22 07:02:45;;;;;;;4.90;2.50;;;9.70;99.90;;;;;;5102809;28;20058;-70
2022/04/22 07:05:12;;;;;;;6.55;2.58;;;9.80;99.90;;;;;;5111753;28;20077;-70
2022/04/22 07:07:38;;;;;;;3.30;2.13;;;9.90;99.90;;;;;;5110113;28;20040;-70
2022/04/22 07:10:04;;;;;;;4.90;2.20;;;10.00;99.90;;;;;;5095901;28;20044;-69
2022/04/22 07:12:31;;;;;;;3.00;2.40;;;10.10;99.90;;;;;;5105021;28;20530;-69
2022/04/22 07:15:03;;;;;;;4.28;2.28;;;10.10;99.90;;;;;;5110765;28;20545;-70
2022/04/22 07:17:37;;;;;;;2.92;2.03;;;10.30;99.90;;;;;;5091661;28;20194;-72
2022/04/22 07:20:09;;;;;;;3.38;2.08;;;10.40;99.90;;;;;;5093438;28;20046;-71
2022/04/22 07:22:42;;;;;;;4.45;2.00;;;10.50;99.90;;;;;;5094482;28;20589;-71
2022/04/22 07:25:11;;;;;;;4.25;2.30;;;10.60;99.90;;;;;;5104455;28;20101;-72
2022/04/22 07:27:40;;;;;;;3.65;2.33;;;10.70;99.90;;;;;;5103491;28;20105;-73
2022/04/22 07:30:08;;;;;;;3.00;2.70;;;10.80;99.90;;;;;;5110734;28;20052;-78
2022/04/22 07:32:37;;;;;;;6.68;2.13;;;10.90;99.90;;;;;;5111511;28;20086;-76
2022/04/22 07:35:04;;;;;;;7.43;2.67;;;10.90;99.90;;;;;;5101023;28;20036;-71
2022/04/22 07:37:31;;;;;;;3.08;2.00;;;10.90;99.90;;;;;;5105599;28;20040;-71
2022/04/22 07:39:56;;;;;;;3.78;2.85;;;10.90;99.90;;;;;;5091156;28;20048;-72
2022/04/22 07:42:22;;;;;;;2.80;2.22;;;11.00;99.90;;;;;;5103810;28;20040;-70
2022/04/22 07:47:35;;;;;;;4.60;2.20;;;11.10;99.90;;;;;;5089302;28;20075;-70
2022/04/22 07:50:05;;;;;;;2.35;2.13;;;11.20;99.90;;;;;;5106932;28;20059;-71
2022/04/22 07:52:37;;;;;;;6.97;3.42;;;11.30;99.90;;;;;;5096077;28;20569;-71
2022/04/22 07:55:03;;;;;;;4.28;2.47;;;11.40;99.90;;;;;;5094991;28;20086;-71
2022/04/22 07:57:30;;;;;;;6.68;2.67;;;11.50;99.90;;;;;;5106215;28;20520;-72
2022/04/22 07:59:56;;;;;;;3.42;2.38;;;11.60;99.90;;;;;;5109505;28;20389;-72
2022/04/22 08:02:23;;;;;;;4.75;2.75;;;11.70;99.90;;;;;;5101864;28;20122;-72
2022/04/22 08:04:49;;;;;;;3.05;2.38;;;11.70;99.90;;;;;;5108996;28;20393;-71
2022/04/22 08:07:15;;;;;;;8.07;2.42;;;11.80;99.90;;;;;;5106719;28;20094;-72
2022/04/22 08:09:41;;;;;;;4.80;2.25;;;11.80;99.90;;;;;;5115063;28;20047;-73
2022/04/22 08:12:08;;;;;;;3.60;2.20;;;11.90;99.90;;;;;;5113102;28;20535;-72
2022/04/22 08:14:34;;;;;;;2.85;2.30;;;11.90;99.90;;;;;;5106097;28;20043;-72
2022/04/22 08:17:00;;;;;;;4.32;2.35;;;12.00;99.90;;;;;;5109718;28;20048;-73
2022/04/22 08:19:25;;;;;;;7.85;2.15;;;12.10;99.90;;;;;;5113048;28;20070;-72
2022/04/22 08:21:52;;;;;;;4.80;2.45;;;12.20;99.90;;;;;;5113491;28;20097;-72
2022/04/22 08:24:18;;;;;;;4.32;2.40;;;12.20;99.90;;;;;;5115336;28;20075;-72
2022/04/22 08:26:44;;;;;;;3.17;2.13;;;12.30;99.90;;;;;;5113800;28;20490;-72
2022/04/22 08:29:10;;;;;;;4.70;2.47;;;12.40;99.90;;;;;;5114641;28;20210;-72
2022/04/22 08:31:36;;;;;;;6.97;2.20;;;12.50;99.90;;;;;;5114465;28;20039;-72
2022/04/22 08:34:01;;;;;;;6.65;2.65;;;12.60;99.90;;;;;;5109461;28;20040;-72
2022/04/22 08:36:29;;;;;;;3.70;2.30;;;12.70;99.90;;;;;;5109412;28;20039;-72
2022/04/22 08:38:55;;;;;;;3.08;2.25;;;12.80;99.90;;;;;;5114540;28;20050;-73
2022/04/22 08:41:24;;;;;;;4.20;2.03;;;12.80;99.90;;;;;;5114133;28;20086;-72
2022/04/22 08:43:56;;;;;;;5.80;2.38;;;12.80;99.90;;;;;;5114720;28;20136;-73
2022/04/22 08:51:58;;;;;;;3.33;2.22;;;12.90;99.90;;;;;;5114382;28;20047;-73
2022/04/22 08:54:27;;;;;;;7.40;2.65;;;13.00;99.90;;;;;;5112920;28;20055;-74
2022/04/22 08:56:54;;;;;;;4.43;2.38;;;13.10;99.90;;;;;;5114499;28;20088;-75
2022/04/22 08:59:19;;;;;;;7.57;2.35;;;13.20;99.90;;;;;;5113557;28;20435;-75
2022/04/22 09:01:45;;;;;;;4.07;2.05;;;13.40;99.90;;;;;;5113835;28;20114;-72
2022/04/22 09:04:11;;;;;;;2.67;2.15;;;13.80;99.90;;;;;;5114335;28;20047;-75
2022/04/22 09:06:37;;;;;;;4.80;2.17;;;13.50;99.90;;;;;;5114379;28;20043;-73
2022/04/22 09:09:07;;;;;;;3.97;2.40;;;13.60;99.90;;;;;;5112108;28;20035;-73
2022/04/22 09:11:37;;;;;;;5.00;2.50;;;13.70;99.90;;;;;;5112951;28;20405;-73
2022/04/22 09:14:04;;;;;;;3.88;2.53;;;13.70;99.90;;;;;;5113062;28;20510;-73
2022/04/22 09:16:29;;;;;;;3.15;2.00;;;13.80;99.90;;;;;;5113475;28;20521;-73
2022/04/22 09:18:59;;;;;;;4.47;2.88;;;13.80;99.90;;;;;;5113142;28;20047;-73
2022/04/22 09:21:25;;;;;;;4.40;2.20;;;14.00;99.90;;;;;;5113328;28;20405;-73
2022/04/22 09:23:51;;;;;;;10.93;2.40;;;14.00;99.90;;;;;;5104737;28;20047;-73
2022/04/22 09:26:22;;;;;;;3.05;2.42;;;14.00;99.90;;;;;;5112887;28;20042;-73
2022/04/22 09:28:57;;;;;;;3.00;2.50;;;14.10;99.90;;;;;;5105382;28;20136;-73
2022/04/22 09:31:25;;;;;;;2.78;2.45;;;14.20;99.90;;;;;;5092348;28;20148;-73
2022/04/22 09:33:51;;;;;;;9.07;2.45;;;14.20;99.90;;;;;;5093296;28;20048;-72
2022/04/22 09:45:06;;;;;;;4.97;2.08;;;14.30;99.90;;;;;;5097414;28;20048;-72
2022/04/22 09:47:33;;;;;;;4.80;2.67;;;14.40;99.90;;;;;;5101940;28;20131;-73
2022/04/22 09:50:05;;;;;;;4.28;2.65;;;14.40;99.90;;;;;;5097556;28;20047;-72
2022/04/22 09:52:34;;;;;;;5.43;2.40;;;14.40;99.90;;;;;;5111917;28;20056;-72
2022/04/22 09:55:03;;;;;;;5.45;2.80;;;14.50;99.90;;;;;;5101636;28;20044;-72
2022/04/22 09:57:30;;;;;;;5.25;2.58;;;14.50;99.90;;;;;;5092526;28;20057;-72
2022/04/22 09:59:56;;;;;;;4.22;2.65;;;14.40;99.90;;;;;;5100002;28;20032;-73
2022/04/22 10:02:25;;;;;;;3.42;2.70;;;14.40;99.90;;;;;;5104318;28;20067;-72
2022/04/22 10:04:56;;;;;;;5.13;2.53;;;14.50;99.90;;;;;;5109814;28;20118;-72
2022/04/22 10:07:25;;;;;;;4.50;2.15;;;14.50;99.90;;;;;;5102994;28;20376;-72
2022/04/22 10:09:54;;;;;;;3.55;2.33;;;14.50;99.90;;;;;;5109052;28;20481;-71
2022/04/22 10:12:22;;;;;;;5.63;2.95;;;14.50;99.90;;;;;;5111901;28;20053;-72
2022/04/22 10:14:53;;;;;;;3.50;2.70;;;14.60;99.90;;;;;;5111887;28;20505;-72
2022/04/22 10:17:20;;;;;;;4.85;2.33;;;14.60;99.90;;;;;;5111838;28;20047;-72
2022/04/22 10:19:46;;;;;;;4.28;2.72;;;14.70;99.90;;;;;;5110706;28;20112;-71
2022/04/22 10:22:12;;;;;;;7.72;2.80;;;14.60;99.90;;;;;;5112903;28;20036;-72
2022/04/22 10:24:39;;;;;;;3.85;2.42;;;14.60;99.90;;;;;;5111996;28;20054;-72
2022/04/22 10:27:08;;;;;;;3.28;2.13;;;14.80;99.90;;;;;;5112299;28;20040;-72
2022/04/22 10:29:35;;;;;;;5.30;2.63;;;14.80;99.90;;;;;;5112416;28;20044;-72
2022/04/22 10:32:04;;;;;;;5.80;3.00;;;14.90;99.90;;;;;;5109544;28;20488;-72
2022/04/22 10:34:41;;;;;;;5.65;2.97;;;14.90;99.90;;;;;;5112455;28;20611;-75
2022/04/22 10:37:20;;;;;;;5.32;3.20;;;14.90;99.90;;;;;;5110934;28;20508;-72
2022/04/22 10:39:51;;;;;;;8.63;3.00;;;15.00;99.90;;;;;;5105372;28;20040;-72
2022/04/22 10:42:17;;;;;;;4.60;2.70;;;15.10;99.90;;;;;;5099608;28;20088;-72
2022/04/22 10:47:40;;;;;;;4.13;2.40;;;15.40;99.90;;;;;;5092229;28;20044;-72
2022/04/22 10:50:35;;;;;;;7.43;2.88;;;15.50;99.90;;;;;;5094652;28;20052;-72
2022/04/22 10:53:09;;;;;;;4.90;2.80;;;15.60;99.90;;;;;;5110058;28;20151;-72
2022/04/22 10:55:37;;;;;;;4.93;3.28;;;15.50;99.90;;;;;;5112411;28;20055;-72
2022/04/22 10:58:20;;;;;;;4.90;3.03;;;15.50;99.90;;;;;;5110767;28;20035;-72
2022/04/22 11:01:04;;;;;;;6.43;3.00;;;15.60;99.90;;;;;;5109864;28;20047;-71
2022/04/22 11:03:31;;;;;;;4.78;3.15;;;15.60;99.90;;;;;;5108883;28;20052;-72
2022/04/22 11:06:01;;;;;;;4.03;2.75;;;15.60;99.90;;;;;;5101234;28;20044;-72
2022/04/22 11:08:41;;;;;;;3.75;2.75;;;15.60;99.90;;;;;;5092971;28;20035;-72
2022/04/22 11:11:13;;;;;;;6.35;2.28;;;15.70;99.90;;;;;;5110383;28;20047;-72
2022/04/22 11:13:50;;;;;;;6.38;2.75;;;15.80;99.90;;;;;;5110744;28;20131;-72
2022/04/22 11:16:32;;;;;;;3.55;2.30;;;15.90;99.90;;;;;;5110916;28;20047;-72
2022/04/22 11:19:19;;;;;;;3.38;2.95;;;16.00;99.90;;;;;;5110192;28;20047;-72
2022/04/22 11:21:52;;;;;;;4.25;3.00;;;16.20;99.90;;;;;;5105977;28;20467;-71
2022/04/22 11:24:29;;;;;;;5.82;3.05;;;16.20;99.90;;;;;;5089530;28;20093;-71
2022/04/22 11:27:03;;;;;;;5.10;3.42;;;16.20;99.40;;;;;;5091155;28;20039;-72
2022/04/22 11:29:29;;;;;;;5.25;2.92;;;16.20;99.10;;;;;;5090542;28;20097;-72
2022/04/22 11:32:01;;;;;;;2.88;2.60;;;16.10;99.60;;;;;;5097313;28;20054;-71
2022/04/22 11:34:51;;;;;;;2.90;2.58;;;16.20;99.10;;;;;;5097720;28;20093;-71
2022/04/22 11:37:19;;;;;;;5.63;3.13;;;16.30;98.10;;;;;;5090912;28;20050;-71
2022/04/22 11:39:49;;;;;;;3.80;2.92;;;16.30;96.90;;;;;;5089973;28;20133;-71
2022/04/22 11:42:17;;;;;;;4.00;2.70;;;16.30;97.60;;;;;;5089325;28;20405;-71
2022/04/22 11:45:04;;;;;;;3.08;2.88;;;16.30;97.30;;;;;;5092582;28;20044;-71
2022/04/22 11:47:29;;;;;;;11.30;3.20;;;16.30;98.00;;;;;;5088979;28;20137;-71
2022/04/22 11:49:56;;;;;;;5.68;3.08;;;16.30;97.10;;;;;;5102315;28;20513;-71
2022/04/22 11:52:22;;;;;;;4.03;2.65;;;16.40;96.50;;;;;;5074159;28;20048;-71
2022/04/22 11:54:49;;;;;;;5.13;2.95;;;16.40;96.10;;;;;;5093111;28;20048;-71
2022/04/22 11:57:17;;;;;;;9.10;3.63;;;16.40;95.00;;;;;;5088526;28;20056;-71
2022/04/22 12:05:31;;;;;;;5.00;3.45;;;16.30;96.00;;;;;;5090499;28;20047;-71
2022/04/22 12:05:35;;;;;;;3.60;3.10;;;16.70;98.00;;;;;;5110051;28;20047;-71
2022/04/22 12:08:04;;;;;;;6.30;3.38;;;16.70;96.90;;;;;;5104315;28;20056;-71
2022/04/22 12:10:30;;;;;;;6.85;3.67;;;16.80;96.90;;;;;;5091793;28;20059;-71
2022/04/22 12:13:01;;;;;;;3.97;3.45;;;16.90;97.00;;;;;;5094979;28;20047;-73
2022/04/22 12:15:27;;;;;;;8.95;3.88;;;16.90;95.80;;;;;;5100160;28;20047;-71
2022/04/22 12:17:53;;;;;;;4.45;3.00;;;17.00;97.00;;;;;;5089617;28;20613;-72
2022/04/22 12:20:19;;;;;;;4.20;3.08;;;17.00;95.80;;;;;;5090689;28;20127;-72
2022/04/22 12:22:51;;;;;;;6.43;3.30;;;17.00;95.10;;;;;;5089633;28;20054;-72
2022/04/22 12:25:23;;;;;;;4.05;3.55;;;17.10;96.00;;;;;;5090462;28;20040;-72
2022/04/22 12:28:08;;;;;;;4.03;3.63;;;17.20;95.60;;;;;;5106574;28;20040;-72
2022/04/22 12:30:36;;;;;;;3.95;3.10;;;17.30;96.00;;;;;;5099604;28;20369;-71
2022/04/22 12:33:02;;;;;;;5.85;3.55;;;17.40;94.40;;;;;;5103560;28;20434;-71
2022/04/22 12:35:28;;;;;;;4.05;3.40;;;17.50;94.30;;;;;;5092245;28;20260;-71
2022/04/22 12:37:54;;;;;;;6.53;4.07;;;17.50;92.30;;;;;;5096299;28;20390;-71
2022/04/22 12:40:26;;;;;;;4.68;3.45;;;17.40;91.80;;;;;;5098420;28;20051;-71
2022/04/22 12:42:52;;;;;;;5.75;4.00;;;17.40;92.10;;;;;;5104767;28;20492;-71
2022/04/22 12:54:08;;;;;;;5.65;3.53;;;17.30;91.90;;;;;;5101727;28;20052;-71
2022/04/22 12:56:36;;;;;;;25.98;4.15;;;17.30;91.90;;;;;;5104500;28;20040;-71
2022/04/22 12:59:03;;;;;;;5.28;4.38;;;17.40;93.00;;;;;;5114065;28;20067;-70
2022/04/22 13:01:32;;;;;;;5.75;4.00;;;17.60;92.10;;;;;;5104747;28;20036;-70
2022/04/22 13:03:58;;;;;;;3.90;3.60;;;17.70;91.50;;;;;;5097092;28;20036;-70
2022/04/22 13:06:43;;;;;;;6.97;4.13;;;18.90;92.90;;;;;;5099573;28;20695;-70
2022/04/22 13:09:10;;;;;;;4.47;4.07;;;17.80;91.60;;;;;;5110023;27;20088;-71
2022/04/22 13:11:36;;;;;;;7.20;3.75;;;17.90;91.10;;;;;;5093904;28;20150;-71
2022/04/22 13:14:04;;;;;;;6.88;3.60;;;18.00;92.30;;;;;;5103623;28;20040;-70
2022/04/22 13:16:30;;;;;;;4.70;3.60;;;18.10;91.70;;;;;;5102753;28;20058;-71
2022/04/22 13:18:56;;;;;;;9.95;4.38;;;18.20;91.40;;;;;;5098690;28;20051;-72
2022/04/22 13:21:22;;;;;;;8.30;4.50;;;18.20;91.60;;;;;;5100426;28;20504;-72
2022/04/22 13:23:47;;;;;;;5.07;4.13;;;18.20;91.80;;;;;;5096653;28;20043;-72
2022/04/22 13:26:13;;;;;;;10.15;4.10;;;18.20;91.30;;;;;;5099221;28;20051;-71
2022/04/22 13:28:39;;;;;;;8.35;4.75;;;18.30;91.10;;;;;;5096296;28;20051;-71
2022/04/22 13:31:04;;;;;;;5.07;3.88;;;18.40;91.30;;;;;;5100648;28;20067;-71
2022/04/22 13:33:32;;;;;;;7.18;4.63;;;18.40;90.90;;;;;;5102238;28;20139;-71
2022/04/22 13:36:02;;;;;;;5.53;4.05;;;18.40;90.30;;;;;;5105242;28;20498;-71
2022/04/22 13:38:29;;;;;;;5.15;4.22;;;18.20;90.20;;;;;;5102055;28;20040;-70
2022/04/22 13:40:54;;;;;;;3.92;3.50;;;18.10;89.40;;;;;;5093796;28;20059;-70
2022/04/22 13:43:20;;;;;;;4.45;4.03;;;18.00;90.40;;;;;;5100765;28;20044;-71
2022/04/22 13:53:58;;;;;;;4.78;4.28;;;18.30;89.90;;;;;;5095695;28;20525;-72
2022/04/22 13:56:27;;;;;;;5.20;3.80;;;18.50;90.00;;;;;;5093405;28;20142;-72
2022/04/22 13:58:53;;;;;;;5.82;4.13;;;18.60;90.20;;;;;;5091455;28;20092;-73
2022/04/22 14:01:18;;;;;;;4.07;3.67;;;18.80;90.60;;;;;;5092121;28;20040;-72
2022/04/22 14:03:44;;;;;;;4.85;3.63;;;18.90;88.30;;;;;;5092391;28;20048;-73
2022/04/22 14:06:09;;;;;;;7.93;4.13;;;18.90;87.10;;;;;;5092499;28;20166;-73
2022/04/22 14:08:35;;;;;;;3.75;3.42;;;18.90;86.20;;;;;;5091736;28;20059;-73
2022/04/22 14:11:01;;;;;;;7.10;4.18;;;19.00;82.50;;;;;;5099807;28;20135;-72
2022/04/22 14:13:27;;;;;;;5.68;4.45;;;18.90;82.30;;;;;;5092833;28;20578;-72
2022/04/22 14:15:53;;;;;;;6.63;4.82;;;18.80;87.80;;;;;;5092650;28;20044;-73